BISN18 CYOD-CYOD

Flight info

Callsign BISN18
Flight time 0h 32m
Altitude 1000
Route VFR NORTH / R204
Aircraft C17/H-VGD/C

Departure

Time 2026-04-19 01:44
Airport CFB Cold Lake (CYOD)

Arrival

Time 2026-04-19 02:16
Airport CFB Cold Lake (CYOD)
Time Latitude Longitude Altitude Speed Heading
2026-04-19 01:32 54.40616 -110.28057 1768 ft 0 kts 150°
2026-04-19 01:38 54.40610 -110.28052 1772 ft 2 kts 151°
2026-04-19 01:38 54.40600 -110.28042 1770 ft 1 kts 151°
2026-04-19 01:39 54.40596 -110.28039 1770 ft 2 kts 151°
2026-04-19 01:40 54.40580 -110.28024 1771 ft 4 kts 151°
2026-04-19 01:40 54.40554 -110.27998 1772 ft 5 kts 151°
2026-04-19 01:40 54.40518 -110.27964 1769 ft 7 kts 151°
2026-04-19 01:40 54.40483 -110.27909 1772 ft 7 kts 123°
2026-04-19 01:41 54.40458 -110.27838 1773 ft 7 kts 121°
2026-04-19 01:41 54.40424 -110.27772 1771 ft 7 kts 148°
2026-04-19 01:41 54.40372 -110.27763 1770 ft 8 kts 188°
2026-04-19 01:41 54.40313 -110.27780 1771 ft 9 kts 189°
2026-04-19 01:42 54.40245 -110.27800 1771 ft 10 kts 189°
2026-04-19 01:42 54.40169 -110.27812 1773 ft 11 kts 175°
2026-04-19 01:42 54.40121 -110.27780 1771 ft 1 kts 146°
2026-04-19 01:43 54.40106 -110.27762 1771 ft 4 kts 145°
2026-04-19 01:43 54.40075 -110.27724 1772 ft 6 kts 139°
2026-04-19 01:43 54.40076 -110.27632 1773 ft 12 kts 61°
2026-04-19 01:43 54.40082 -110.27616 1771 ft 0 kts 55°
2026-04-19 01:44 54.40093 -110.27590 1769 ft 21 kts 55°
2026-04-19 01:44 54.40351 -110.26984 1769 ft 106 kts 54°
2026-04-19 01:44 54.40889 -110.25734 2036 ft 146 kts 54°
2026-04-19 01:44 54.41577 -110.24162 2411 ft 187 kts 53°
2026-04-19 01:45 54.42432 -110.22229 2458 ft 206 kts 53°
2026-04-19 01:45 54.43317 -110.20240 2477 ft 218 kts 53°
2026-04-19 01:45 54.44290 -110.18264 2485 ft 216 kts 38°
2026-04-19 01:45 54.45620 -110.17123 2506 ft 214 kts 21°
2026-04-19 01:46 54.47019 -110.16212 2508 ft 216 kts 22°
2026-04-19 01:46 54.48589 -110.15102 2535 ft 253 kts 23°
2026-04-19 01:46 54.50227 -110.13971 2516 ft 254 kts 22°
2026-04-19 01:46 54.51876 -110.12855 2528 ft 254 kts 22°
2026-04-19 01:47 54.53522 -110.11740 2526 ft 255 kts 22°
2026-04-19 01:47 54.55174 -110.10620 2531 ft 255 kts 22°
2026-04-19 01:47 54.56823 -110.09502 2539 ft 255 kts 22°
2026-04-19 01:47 54.58482 -110.08420 2538 ft 255 kts 15°
2026-04-19 01:48 54.60244 -110.08427 2542 ft 256 kts 347°
2026-04-19 01:48 54.61952 -110.09338 2556 ft 258 kts 342°
2026-04-19 01:48 54.63665 -110.10291 2541 ft 261 kts 343°
2026-04-19 01:48 54.65380 -110.11240 2723 ft 254 kts 342°
2026-04-19 01:49 54.67093 -110.12213 3160 ft 263 kts 342°
2026-04-19 01:49 54.68814 -110.13189 3472 ft 266 kts 342°
2026-04-19 01:49 54.70571 -110.14178 3541 ft 265 kts 342°
2026-04-19 01:49 54.72327 -110.15163 3560 ft 265 kts 342°
2026-04-19 01:50 54.74077 -110.16141 3568 ft 264 kts 342°
2026-04-19 01:50 54.75825 -110.17119 3570 ft 264 kts 342°
2026-04-19 01:50 54.77574 -110.18100 3573 ft 264 kts 342°
2026-04-19 01:50 54.79326 -110.19082 3570 ft 263 kts 342°
2026-04-19 01:51 54.81071 -110.20060 3571 ft 265 kts 342°
2026-04-19 01:51 54.82824 -110.21042 3570 ft 264 kts 342°
2026-04-19 01:51 54.84697 -110.22089 3592 ft 292 kts 342°
2026-04-19 01:51 54.86643 -110.23174 3584 ft 293 kts 344°
2026-04-19 01:52 54.88651 -110.23385 3562 ft 289 kts 13°
2026-04-19 01:52 54.90388 -110.21696 3569 ft 290 kts 47°
2026-04-19 01:52 54.91323 -110.18668 3584 ft 287 kts 79°
2026-04-19 01:52 54.91330 -110.15207 3600 ft 288 kts 97°
2026-04-19 01:53 54.91008 -110.11772 3594 ft 288 kts 101°
2026-04-19 01:53 54.90644 -110.08369 3592 ft 287 kts 101°
2026-04-19 01:53 54.90260 -110.04983 3588 ft 284 kts 102°
2026-04-19 01:53 54.89873 -110.01601 3589 ft 286 kts 102°
2026-04-19 01:54 54.89484 -109.98215 3589 ft 286 kts 102°
2026-04-19 01:54 54.89090 -109.94821 3590 ft 289 kts 101°
2026-04-19 01:54 54.88689 -109.91401 3590 ft 287 kts 99°
2026-04-19 01:54 54.88795 -109.87965 3589 ft 288 kts 77°
2026-04-19 01:55 54.89356 -109.84610 3601 ft 289 kts 72°
2026-04-19 01:55 54.89963 -109.81280 3599 ft 288 kts 73°
2026-04-19 01:55 54.90572 -109.77964 3597 ft 289 kts 72°
2026-04-19 01:55 54.91194 -109.74643 3598 ft 289 kts 72°
2026-04-19 01:56 54.91821 -109.71331 3598 ft 289 kts 72°
2026-04-19 01:56 54.92450 -109.68016 3598 ft 289 kts 72°
2026-04-19 01:56 54.93079 -109.64702 3598 ft 289 kts 72°
2026-04-19 01:56 54.93711 -109.61382 3598 ft 289 kts 72°
2026-04-19 01:57 54.94340 -109.58073 3598 ft 288 kts 72°
2026-04-19 01:57 54.94997 -109.54776 3563 ft 290 kts 69°
2026-04-19 01:57 54.95849 -109.51610 3153 ft 262 kts 63°
2026-04-19 01:57 54.96553 -109.49327 2612 ft 182 kts 62°
2026-04-19 01:58 54.97138 -109.47447 2194 ft 171 kts 62°
2026-04-19 01:58 54.97664 -109.45752 2316 ft 154 kts 62°
2026-04-19 01:58 54.98197 -109.44063 2600 ft 166 kts 62°
2026-04-19 01:58 54.98754 -109.42323 2600 ft 163 kts 62°
2026-04-19 01:59 54.99293 -109.40622 2598 ft 162 kts 62°
2026-04-19 01:59 54.99838 -109.38914 2595 ft 161 kts 61°
2026-04-19 01:59 55.00391 -109.37173 2604 ft 183 kts 62°
2026-04-19 01:59 55.01098 -109.34914 2872 ft 219 kts 62°
2026-04-19 02:00 55.01821 -109.32617 3620 ft 231 kts 62°
2026-04-19 02:00 55.02628 -109.30119 3625 ft 236 kts 55°
2026-04-19 02:00 55.03905 -109.28442 3606 ft 235 kts 16°
2026-04-19 02:00 55.05527 -109.28651 3611 ft 240 kts 335°
2026-04-19 02:01 55.06711 -109.30647 3625 ft 243 kts 296°
2026-04-19 02:01 55.06986 -109.33487 3633 ft 239 kts 266°
2026-04-19 02:01 55.06811 -109.36421 3622 ft 244 kts 263°
2026-04-19 02:01 55.06631 -109.39335 3612 ft 241 kts 263°
2026-04-19 02:02 55.06431 -109.42233 3606 ft 241 kts 262°
2026-04-19 02:02 55.06209 -109.45131 3608 ft 239 kts 261°
2026-04-19 02:02 55.05721 -109.47890 3597 ft 241 kts 244°
2026-04-19 02:02 55.04956 -109.50491 3606 ft 240 kts 242°
2026-04-19 02:03 55.04198 -109.53071 3612 ft 239 kts 243°
2026-04-19 02:03 55.03446 -109.55653 3612 ft 239 kts 242°
2026-04-19 02:03 55.02939 -109.57356 3612 ft 239 kts 242°
2026-04-19 02:03 55.01914 -109.60785 3602 ft 239 kts 242°
2026-04-19 02:04 55.01408 -109.62491 3604 ft 239 kts 242°
2026-04-19 02:04 55.00645 -109.65060 3606 ft 239 kts 242°
2026-04-19 02:04 54.99612 -109.67270 3572 ft 237 kts 210°
2026-04-19 02:04 54.98067 -109.68200 3613 ft 237 kts 192°
2026-04-19 02:05 54.96459 -109.68836 3599 ft 236 kts 193°
2026-04-19 02:05 54.94871 -109.69538 3606 ft 236 kts 199°
2026-04-19 02:05 54.93554 -109.71180 3598 ft 235 kts 229°
2026-04-19 02:05 54.92495 -109.73555 3611 ft 257 kts 232°
2026-04-19 02:06 54.91394 -109.75986 3601 ft 257 kts 231°
2026-04-19 02:06 54.90287 -109.78422 3601 ft 256 kts 232°
2026-04-19 02:06 54.89198 -109.80876 3602 ft 257 kts 232°
2026-04-19 02:06 54.88112 -109.83335 3603 ft 257 kts 232°
2026-04-19 02:07 54.87022 -109.85803 3601 ft 257 kts 232°
2026-04-19 02:07 54.85937 -109.88263 3600 ft 257 kts 232°
2026-04-19 02:07 54.84846 -109.90730 3600 ft 257 kts 232°
2026-04-19 02:07 54.83761 -109.93191 3594 ft 257 kts 232°
2026-04-19 02:08 54.82685 -109.95672 3594 ft 257 kts 232°
2026-04-19 02:08 54.81635 -109.98121 3594 ft 256 kts 232°
2026-04-19 02:08 54.80573 -110.00609 3594 ft 257 kts 232°
2026-04-19 02:08 54.79511 -110.03093 3595 ft 257 kts 232°
2026-04-19 02:09 54.78441 -110.05585 3591 ft 256 kts 232°
2026-04-19 02:09 54.77382 -110.08069 3595 ft 257 kts 232°
2026-04-19 02:09 54.76323 -110.10556 3585 ft 256 kts 232°
2026-04-19 02:09 54.75259 -110.13043 3584 ft 257 kts 232°
2026-04-19 02:10 54.74161 -110.15465 3572 ft 256 kts 224°
2026-04-19 02:10 54.72831 -110.17501 3579 ft 256 kts 220°
2026-04-19 02:10 54.71523 -110.19590 3569 ft 256 kts 223°
2026-04-19 02:10 54.70241 -110.21716 3570 ft 256 kts 223°
2026-04-19 02:11 54.68948 -110.23837 3566 ft 256 kts 222°
2026-04-19 02:11 54.67657 -110.25951 3559 ft 255 kts 222°
2026-04-19 02:11 54.66367 -110.28070 3561 ft 256 kts 222°
2026-04-19 02:11 54.65075 -110.30177 3551 ft 255 kts 220°
2026-04-19 02:12 54.63676 -110.32055 3543 ft 254 kts 213°
2026-04-19 02:12 54.62222 -110.33731 3546 ft 255 kts 212°
2026-04-19 02:12 54.60656 -110.35133 3477 ft 255 kts 193°
2026-04-19 02:12 54.58927 -110.35661 3477 ft 256 kts 191°
2026-04-19 02:13 54.57226 -110.36373 3799 ft 260 kts 194°
2026-04-19 02:13 54.55495 -110.37163 3807 ft 255 kts 195°
2026-04-19 02:13 54.53864 -110.37819 3709 ft 229 kts 185°
2026-04-19 02:13 54.52331 -110.37744 3408 ft 213 kts 175°
2026-04-19 02:14 54.50959 -110.37541 3277 ft 178 kts 174°
2026-04-19 02:14 54.49705 -110.37315 3452 ft 183 kts 173°
2026-04-19 02:14 54.48416 -110.36836 3284 ft 184 kts 165°
2026-04-19 02:14 54.47306 -110.36330 2840 ft 159 kts 163°
2026-04-19 02:15 54.46280 -110.35706 2484 ft 158 kts 155°
2026-04-19 02:15 54.45296 -110.34749 2394 ft 168 kts 146°
2026-04-19 02:15 54.44343 -110.33586 2393 ft 167 kts 142°
2026-04-19 02:15 54.43430 -110.32373 2171 ft 166 kts 141°
2026-04-19 02:16 54.42506 -110.31211 1947 ft 159 kts 143°
2026-04-19 02:16 54.41652 -110.30140 1772 ft 144 kts 141°
2026-04-19 02:16 54.41029 -110.29348 1770 ft 68 kts 143°
2026-04-19 02:16 54.40805 -110.29068 1772 ft 32 kts 144°
2026-04-19 02:17 54.40699 -110.28877 1772 ft 16 kts 89°
2026-04-19 02:17 54.40743 -110.28729 1772 ft 7 kts 55°
2026-04-19 02:17 54.40746 -110.28723 1771 ft 1 kts 55°
2026-04-19 02:17 54.40751 -110.28710 1772 ft 2 kts 55°
2026-04-19 02:18 54.40768 -110.28667 1769 ft 15 kts 53°
2026-04-19 02:18 54.40828 -110.28528 1768 ft 13 kts 55°
2026-04-19 02:18 54.40866 -110.28438 1771 ft 6 kts 109°
2026-04-19 02:18 54.40836 -110.28388 1770 ft 6 kts 142°
2026-04-19 02:19 54.40805 -110.28347 1768 ft 6 kts 143°
2026-04-19 02:19 54.40760 -110.28290 1772 ft 10 kts 143°
2026-04-19 02:19 54.40696 -110.28230 1769 ft 7 kts 186°
2026-04-19 02:20 54.40694 -110.28230 1769 ft 0 kts 187°